Portada
METAR-TAF:

METAR-TAF

Aeroports :

Fernandina Beach, Florida, Estats Units d'Amèrica

latitud: 30-36-43N, longitud: 081-27-40W, altitud: 5 m

Observació

L'informe es va fer fa 17 minuts, a les 06:55 UTC
Vent 11 kt del Nord/Nord-Est amb ràfegues de 18 kt
Temperatura 27°C
Humitat 84%
Pressió 1014 hPa
Visibilitat: 16.1 km
Núvols disperses a una alçada de 1800 ft
Núvols disperses a una alçada de 2500 ft
Núvols disperses a una alçada de 4300 ft

METAR: KFHB 160655Z AUTO 03011G18KT 10SM SCT018 SCT025 SCT043 27/24 A2995 RMK AO2 T02710244

Hora: 03:12 (07:12 UTC)


TAF: manca

Observacions i pronòstics meteorològics de més de 4000 aeroports (METAR i TAF).

Les estacions disponibles són els punts grocs i vermells al mapa.

Posi el ratolí al punt desitjat per veure el nom de l'estació.

Feu clic per veure les observacions i els pronòstics meteorològics.

Per canviar el mapa: feu clic els botons verds amb una creu de color negre per apropar; al botó verd amb un guió per allunyar la imatge; o en les fletxes verdes per a mapes adjacents.


METAR-TAF: